YMAV/AVV METAR and TAF weather

Enter ICAO airport designator
Station Type Date Time Source
YMAV METAR 2019/04/18 10:00 UTC NOAA

YMAV 181000Z AUTO 15008KT 9999 // NCD 14/07 Q1028


Station Type Date Time Source
YMAV Decoded METAR 2019/04/18 10:00 UTC NOAA

Avalon, Avalon Airport, Australia (YMAV) 38-02S 144-29E
Apr 18, 2019 - 06:00 AM EDT / 2019.04.18 1000 UTC
Wind: from the SSE (150 degrees) at 9 MPH (8 KT):0
Visibility: greater than 7 mile(s):0
Temperature: 57 F (14 C)
Dew Point: 44 F (7 C)
Relative Humidity: 62%
Pressure (altimeter): 30.36 in. Hg (1028 hPa)
ob: YMAV 181000Z AUTO 15008KT 9999 // NCD 14/07 Q1028
cycle: 10

Station Type Date Time Source
YMAV TAF 2019/04/18 06:33 UTC NOAA

TAF YMAV 180507Z 1806/1906 16012KT 9999 FEW040
FM181300 11007KT 9999 FEW030

Example: see airport list